sensor_id;sensor_type;location;lat;lon;timestamp;P1;durP1;ratioP1;P2;durP2;ratioP2
4210;SDS011;2119;48.828;12.396;2024-03-07T00:00:51;36.03;;;20.57;;
4210;SDS011;2119;48.828;12.396;2024-03-07T00:05:54;36.13;;;21.20;;
4210;SDS011;2119;48.828;12.396;2024-03-07T00:10:54;39.75;;;20.45;;
4210;SDS011;2119;48.828;12.396;2024-03-07T00:15:55;34.07;;;20.10;;
4210;SDS011;2119;48.828;12.396;2024-03-07T00:20:55;35.80;;;20.63;;
4210;SDS011;2119;48.828;12.396;2024-03-07T00:25:56;36.33;;;21.13;;
4210;SDS011;2119;48.828;12.396;2024-03-07T00:30:56;33.80;;;21.13;;
4210;SDS011;2119;48.828;12.396;2024-03-07T00:35:56;39.75;;;21.55;;
4210;SDS011;2119;48.828;12.396;2024-03-07T00:40:56;40.53;;;21.93;;
4210;SDS011;2119;48.828;12.396;2024-03-07T00:45:56;38.10;;;20.37;;
4210;SDS011;2119;48.828;12.396;2024-03-07T00:50:57;37.20;;;20.50;;
4210;SDS011;2119;48.828;12.396;2024-03-07T00:55:57;41.90;;;22.90;;
4210;SDS011;2119;48.828;12.396;2024-03-07T01:00:57;36.70;;;22.17;;
4210;SDS011;2119;48.828;12.396;2024-03-07T01:05:57;37.73;;;22.10;;
4210;SDS011;2119;48.828;12.396;2024-03-07T01:10:58;39.77;;;21.47;;
4210;SDS011;2119;48.828;12.396;2024-03-07T01:15:58;37.63;;;20.33;;
4210;SDS011;2119;48.828;12.396;2024-03-07T01:21:01;37.90;;;20.20;;
4210;SDS011;2119;48.828;12.396;2024-03-07T01:26:02;39.30;;;20.40;;
4210;SDS011;2119;48.828;12.396;2024-03-07T01:31:02;44.25;;;22.10;;
4210;SDS011;2119;48.828;12.396;2024-03-07T01:36:03;36.80;;;21.33;;
4210;SDS011;2119;48.828;12.396;2024-03-07T01:41:05;37.43;;;21.00;;
4210;SDS011;2119;48.828;12.396;2024-03-07T01:46:05;40.80;;;21.30;;
4210;SDS011;2119;48.828;12.396;2024-03-07T01:51:05;45.17;;;20.90;;
4210;SDS011;2119;48.828;12.396;2024-03-07T01:56:05;39.00;;;21.30;;
4210;SDS011;2119;48.828;12.396;2024-03-07T02:01:06;42.33;;;21.55;;
4210;SDS011;2119;48.828;12.396;2024-03-07T02:06:06;40.00;;;21.75;;
4210;SDS011;2119;48.828;12.396;2024-03-07T02:11:06;38.63;;;21.70;;
4210;SDS011;2119;48.828;12.396;2024-03-07T02:16:07;43.47;;;22.70;;
4210;SDS011;2119;48.828;12.396;2024-03-07T02:21:07;40.33;;;21.30;;
4210;SDS011;2119;48.828;12.396;2024-03-07T02:26:09;37.63;;;19.90;;
4210;SDS011;2119;48.828;12.396;2024-03-07T02:31:09;36.80;;;19.67;;
4210;SDS011;2119;48.828;12.396;2024-03-07T02:36:09;43.67;;;21.55;;
4210;SDS011;2119;48.828;12.396;2024-03-07T02:41:09;43.33;;;19.77;;
4210;SDS011;2119;48.828;12.396;2024-03-07T02:46:09;40.55;;;21.00;;
4210;SDS011;2119;48.828;12.396;2024-03-07T02:51:11;38.63;;;21.60;;
4210;SDS011;2119;48.828;12.396;2024-03-07T02:56:11;42.90;;;22.07;;
4210;SDS011;2119;48.828;12.396;2024-03-07T03:01:12;37.25;;;21.13;;
4210;SDS011;2119;48.828;12.396;2024-03-07T03:06:12;41.45;;;23.95;;
4210;SDS011;2119;48.828;12.396;2024-03-07T03:11:12;45.70;;;24.67;;
4210;SDS011;2119;48.828;12.396;2024-03-07T03:16:13;41.13;;;22.33;;
4210;SDS011;2119;48.828;12.396;2024-03-07T03:21:14;43.57;;;23.53;;
4210;SDS011;2119;48.828;12.396;2024-03-07T03:26:15;52.83;;;24.60;;
4210;SDS011;2119;48.828;12.396;2024-03-07T03:31:15;40.33;;;22.60;;
4210;SDS011;2119;48.828;12.396;2024-03-07T03:36:16;39.53;;;20.88;;
4210;SDS011;2119;48.828;12.396;2024-03-07T03:41:16;44.80;;;22.25;;
4210;SDS011;2119;48.828;12.396;2024-03-07T03:46:16;51.10;;;26.20;;
4210;SDS011;2119;48.828;12.396;2024-03-07T03:51:17;45.17;;;23.37;;
4210;SDS011;2119;48.828;12.396;2024-03-07T03:56:17;47.67;;;23.50;;
4210;SDS011;2119;48.828;12.396;2024-03-07T04:01:17;41.53;;;23.43;;
4210;SDS011;2119;48.828;12.396;2024-03-07T04:06:18;43.08;;;21.60;;
4210;SDS011;2119;48.828;12.396;2024-03-07T04:11:18;40.40;;;21.30;;
4210;SDS011;2119;48.828;12.396;2024-03-07T04:16:19;40.80;;;21.48;;
4210;SDS011;2119;48.828;12.396;2024-03-07T04:21:19;45.25;;;22.55;;
4210;SDS011;2119;48.828;12.396;2024-03-07T04:26:19;43.47;;;21.87;;
4210;SDS011;2119;48.828;12.396;2024-03-07T04:31:19;42.90;;;22.50;;
4210;SDS011;2119;48.828;12.396;2024-03-07T04:36:19;45.20;;;23.00;;
4210;SDS011;2119;48.828;12.396;2024-03-07T04:41:20;38.67;;;20.75;;
4210;SDS011;2119;48.828;12.396;2024-03-07T04:46:20;42.90;;;22.37;;
4210;SDS011;2119;48.828;12.396;2024-03-07T04:51:20;45.10;;;23.40;;
4210;SDS011;2119;48.828;12.396;2024-03-07T04:56:20;40.07;;;22.00;;
4210;SDS011;2119;48.828;12.396;2024-03-07T05:01:21;49.23;;;24.70;;
4210;SDS011;2119;48.828;12.396;2024-03-07T05:06:21;47.17;;;23.23;;
4210;SDS011;2119;48.828;12.396;2024-03-07T05:11:21;44.83;;;22.33;;
4210;SDS011;2119;48.828;12.396;2024-03-07T05:16:21;48.17;;;25.05;;
4210;SDS011;2119;48.828;12.396;2024-03-07T05:21:21;50.87;;;25.43;;
4210;SDS011;2119;48.828;12.396;2024-03-07T05:26:37;49.07;;;24.37;;
4210;SDS011;2119;48.828;12.396;2024-03-07T05:31:39;57.23;;;24.80;;
4210;SDS011;2119;48.828;12.396;2024-03-07T05:36:49;53.23;;;25.27;;
4210;SDS011;2119;48.828;12.396;2024-03-07T05:41:49;48.83;;;24.10;;
4210;SDS011;2119;48.828;12.396;2024-03-07T05:46:49;52.80;;;26.60;;
4210;SDS011;2119;48.828;12.396;2024-03-07T05:51:50;54.10;;;26.97;;
4210;SDS011;2119;48.828;12.396;2024-03-07T05:56:50;49.70;;;24.90;;
4210;SDS011;2119;48.828;12.396;2024-03-07T06:01:51;54.42;;;25.75;;
4210;SDS011;2119;48.828;12.396;2024-03-07T06:06:51;50.77;;;24.93;;
4210;SDS011;2119;48.828;12.396;2024-03-07T06:11:51;60.13;;;25.60;;
4210;SDS011;2119;48.828;12.396;2024-03-07T06:16:52;50.83;;;26.20;;
4210;SDS011;2119;48.828;12.396;2024-03-07T06:21:52;52.40;;;27.50;;
4210;SDS011;2119;48.828;12.396;2024-03-07T06:26:54;53.13;;;26.27;;
4210;SDS011;2119;48.828;12.396;2024-03-07T06:32:03;53.67;;;26.90;;
4210;SDS011;2119;48.828;12.396;2024-03-07T06:37:03;54.73;;;27.30;;
4210;SDS011;2119;48.828;12.396;2024-03-07T06:42:03;52.23;;;26.37;;
4210;SDS011;2119;48.828;12.396;2024-03-07T06:47:05;53.47;;;25.57;;
4210;SDS011;2119;48.828;12.396;2024-03-07T06:52:05;53.13;;;26.50;;
4210;SDS011;2119;48.828;12.396;2024-03-07T06:57:06;52.37;;;24.87;;
4210;SDS011;2119;48.828;12.396;2024-03-07T07:02:06;47.53;;;24.93;;
4210;SDS011;2119;48.828;12.396;2024-03-07T07:07:08;49.03;;;24.90;;
4210;SDS011;2119;48.828;12.396;2024-03-07T07:12:10;54.87;;;26.90;;
4210;SDS011;2119;48.828;12.396;2024-03-07T07:17:11;58.43;;;26.70;;
4210;SDS011;2119;48.828;12.396;2024-03-07T07:22:13;52.67;;;24.77;;
4210;SDS011;2119;48.828;12.396;2024-03-07T07:27:13;53.73;;;26.00;;
4210;SDS011;2119;48.828;12.396;2024-03-07T07:32:14;49.37;;;24.60;;
4210;SDS011;2119;48.828;12.396;2024-03-07T07:37:15;53.60;;;25.88;;
4210;SDS011;2119;48.828;12.396;2024-03-07T07:42:15;49.37;;;24.80;;
4210;SDS011;2119;48.828;12.396;2024-03-07T07:47:15;68.70;;;36.17;;
4210;SDS011;2119;48.828;12.396;2024-03-07T07:52:15;54.50;;;26.20;;
4210;SDS011;2119;48.828;12.396;2024-03-07T07:57:16;49.60;;;25.87;;
4210;SDS011;2119;48.828;12.396;2024-03-07T08:02:16;50.90;;;24.65;;
4210;SDS011;2119;48.828;12.396;2024-03-07T08:07:17;48.97;;;24.80;;
4210;SDS011;2119;48.828;12.396;2024-03-07T08:12:18;47.40;;;25.07;;
4210;SDS011;2119;48.828;12.396;2024-03-07T08:17:18;48.70;;;25.60;;
4210;SDS011;2119;48.828;12.396;2024-03-07T08:22:19;48.77;;;23.13;;
4210;SDS011;2119;48.828;12.396;2024-03-07T08:27:20;48.00;;;23.30;;
4210;SDS011;2119;48.828;12.396;2024-03-07T08:32:20;45.60;;;23.50;;
4210;SDS011;2119;48.828;12.396;2024-03-07T08:37:20;43.30;;;22.13;;
4210;SDS011;2119;48.828;12.396;2024-03-07T08:42:21;38.77;;;22.20;;
4210;SDS011;2119;48.828;12.396;2024-03-07T08:47:21;37.53;;;20.10;;
4210;SDS011;2119;48.828;12.396;2024-03-07T08:52:21;40.90;;;22.20;;
4210;SDS011;2119;48.828;12.396;2024-03-07T08:57:22;40.70;;;21.80;;
4210;SDS011;2119;48.828;12.396;2024-03-07T09:02:22;41.05;;;21.40;;
4210;SDS011;2119;48.828;12.396;2024-03-07T09:07:22;48.27;;;23.10;;
4210;SDS011;2119;48.828;12.396;2024-03-07T09:12:23;40.93;;;21.03;;
4210;SDS011;2119;48.828;12.396;2024-03-07T09:17:25;35.27;;;19.20;;
4210;SDS011;2119;48.828;12.396;2024-03-07T09:22:25;33.87;;;18.67;;
4210;SDS011;2119;48.828;12.396;2024-03-07T09:27:25;32.40;;;18.80;;
4210;SDS011;2119;48.828;12.396;2024-03-07T09:32:25;33.55;;;19.17;;
4210;SDS011;2119;48.828;12.396;2024-03-07T09:37:28;32.37;;;17.83;;
4210;SDS011;2119;48.828;12.396;2024-03-07T09:42:28;42.57;;;20.50;;
4210;SDS011;2119;48.828;12.396;2024-03-07T09:47:29;35.90;;;19.03;;
4210;SDS011;2119;48.828;12.396;2024-03-07T09:52:29;29.43;;;17.60;;
4210;SDS011;2119;48.828;12.396;2024-03-07T09:57:30;34.83;;;18.77;;
4210;SDS011;2119;48.828;12.396;2024-03-07T10:02:33;29.50;;;17.87;;
4210;SDS011;2119;48.828;12.396;2024-03-07T10:07:36;28.30;;;15.97;;
4210;SDS011;2119;48.828;12.396;2024-03-07T10:12:36;33.40;;;17.55;;
4210;SDS011;2119;48.828;12.396;2024-03-07T10:17:38;34.27;;;18.20;;
4210;SDS011;2119;48.828;12.396;2024-03-07T10:22:39;32.20;;;18.53;;
4210;SDS011;2119;48.828;12.396;2024-03-07T10:27:39;29.30;;;16.40;;
4210;SDS011;2119;48.828;12.396;2024-03-07T10:32:41;31.67;;;18.03;;
4210;SDS011;2119;48.828;12.396;2024-03-07T10:37:41;27.97;;;16.53;;
4210;SDS011;2119;48.828;12.396;2024-03-07T10:42:44;27.42;;;16.50;;
4210;SDS011;2119;48.828;12.396;2024-03-07T10:47:45;29.07;;;17.57;;
4210;SDS011;2119;48.828;12.396;2024-03-07T10:52:58;29.97;;;18.10;;
4210;SDS011;2119;48.828;12.396;2024-03-07T10:58:02;27.47;;;16.17;;
4210;SDS011;2119;48.828;12.396;2024-03-07T11:03:06;25.97;;;16.17;;
4210;SDS011;2119;48.828;12.396;2024-03-07T11:08:09;25.13;;;15.90;;
4210;SDS011;2119;48.828;12.396;2024-03-07T11:13:12;27.87;;;16.77;;
4210;SDS011;2119;48.828;12.396;2024-03-07T11:18:13;24.70;;;15.93;;
4210;SDS011;2119;48.828;12.396;2024-03-07T11:23:29;30.13;;;17.23;;
4210;SDS011;2119;48.828;12.396;2024-03-07T11:28:30;25.40;;;15.67;;
4210;SDS011;2119;48.828;12.396;2024-03-07T11:33:31;26.60;;;16.20;;
4210;SDS011;2119;48.828;12.396;2024-03-07T11:38:31;27.00;;;15.57;;
4210;SDS011;2119;48.828;12.396;2024-03-07T11:43:34;25.13;;;15.17;;
4210;SDS011;2119;48.828;12.396;2024-03-07T11:48:35;22.43;;;14.47;;
4210;SDS011;2119;48.828;12.396;2024-03-07T11:53:35;21.60;;;14.43;;
4210;SDS011;2119;48.828;12.396;2024-03-07T11:58:39;21.87;;;13.23;;
4210;SDS011;2119;48.828;12.396;2024-03-07T12:03:40;18.73;;;12.90;;
4210;SDS011;2119;48.828;12.396;2024-03-07T12:08:41;25.50;;;15.70;;
4210;SDS011;2119;48.828;12.396;2024-03-07T12:13:41;20.67;;;14.63;;
4210;SDS011;2119;48.828;12.396;2024-03-07T12:18:42;23.30;;;14.77;;
4210;SDS011;2119;48.828;12.396;2024-03-07T12:23:44;21.13;;;13.90;;
4210;SDS011;2119;48.828;12.396;2024-03-07T12:28:44;21.08;;;13.70;;
4210;SDS011;2119;48.828;12.396;2024-03-07T12:33:46;26.10;;;14.13;;
4210;SDS011;2119;48.828;12.396;2024-03-07T12:38:54;23.87;;;14.57;;
4210;SDS011;2119;48.828;12.396;2024-03-07T12:43:54;25.70;;;13.90;;
4210;SDS011;2119;48.828;12.396;2024-03-07T12:48:55;24.63;;;15.10;;
4210;SDS011;2119;48.828;12.396;2024-03-07T12:53:58;25.60;;;15.20;;
4210;SDS011;2119;48.828;12.396;2024-03-07T12:58:58;21.80;;;14.53;;
4210;SDS011;2119;48.828;12.396;2024-03-07T13:04:00;24.63;;;15.50;;
4210;SDS011;2119;48.828;12.396;2024-03-07T13:09:00;20.10;;;13.57;;
4210;SDS011;2119;48.828;12.396;2024-03-07T13:14:00;25.10;;;14.80;;
4210;SDS011;2119;48.828;12.396;2024-03-07T13:19:01;24.95;;;15.57;;
4210;SDS011;2119;48.828;12.396;2024-03-07T13:24:04;26.23;;;14.80;;
4210;SDS011;2119;48.828;12.396;2024-03-07T13:29:05;24.10;;;14.70;;
4210;SDS011;2119;48.828;12.396;2024-03-07T13:34:05;24.70;;;14.13;;
4210;SDS011;2119;48.828;12.396;2024-03-07T13:39:11;22.73;;;15.20;;
4210;SDS011;2119;48.828;12.396;2024-03-07T13:44:14;20.00;;;13.80;;
4210;SDS011;2119;48.828;12.396;2024-03-07T13:49:14;25.20;;;14.50;;
4210;SDS011;2119;48.828;12.396;2024-03-07T13:54:16;25.43;;;14.13;;
4210;SDS011;2119;48.828;12.396;2024-03-07T14:25:37;22.73;;;13.83;;
4210;SDS011;2119;48.828;12.396;2024-03-07T14:30:44;22.17;;;14.10;;
4210;SDS011;2119;48.828;12.396;2024-03-07T14:41:03;24.80;;;13.93;;
4210;SDS011;2119;48.828;12.396;2024-03-07T14:46:04;22.00;;;15.37;;
4210;SDS011;2119;48.828;12.396;2024-03-07T14:51:06;23.50;;;13.83;;
4210;SDS011;2119;48.828;12.396;2024-03-07T14:56:07;22.97;;;14.50;;
4210;SDS011;2119;48.828;12.396;2024-03-07T15:01:08;21.87;;;14.20;;
4210;SDS011;2119;48.828;12.396;2024-03-07T15:06:08;22.73;;;13.50;;
4210;SDS011;2119;48.828;12.396;2024-03-07T15:11:19;25.80;;;15.20;;
4210;SDS011;2119;48.828;12.396;2024-03-07T15:16:23;24.17;;;14.30;;
4210;SDS011;2119;48.828;12.396;2024-03-07T15:21:24;21.50;;;14.00;;
4210;SDS011;2119;48.828;12.396;2024-03-07T15:26:25;22.33;;;13.50;;
4210;SDS011;2119;48.828;12.396;2024-03-07T15:31:25;22.13;;;14.73;;
4210;SDS011;2119;48.828;12.396;2024-03-07T15:36:25;23.17;;;13.90;;
4210;SDS011;2119;48.828;12.396;2024-03-07T15:41:25;21.75;;;14.25;;
4210;SDS011;2119;48.828;12.396;2024-03-07T15:46:26;22.20;;;12.60;;
4210;SDS011;2119;48.828;12.396;2024-03-07T15:51:27;20.23;;;14.20;;
4210;SDS011;2119;48.828;12.396;2024-03-07T15:56:28;24.67;;;13.40;;
4210;SDS011;2119;48.828;12.396;2024-03-07T16:01:29;20.23;;;12.67;;
4210;SDS011;2119;48.828;12.396;2024-03-07T16:06:29;22.30;;;13.40;;
4210;SDS011;2119;48.828;12.396;2024-03-07T16:11:29;20.87;;;13.47;;
4210;SDS011;2119;48.828;12.396;2024-03-07T16:16:29;22.00;;;13.33;;
4210;SDS011;2119;48.828;12.396;2024-03-07T16:21:30;17.77;;;12.80;;
4210;SDS011;2119;48.828;12.396;2024-03-07T16:26:33;19.50;;;12.23;;
4210;SDS011;2119;48.828;12.396;2024-03-07T16:31:34;16.33;;;10.63;;
4210;SDS011;2119;48.828;12.396;2024-03-07T16:36:34;17.50;;;12.37;;
4210;SDS011;2119;48.828;12.396;2024-03-07T16:41:36;19.60;;;12.83;;
4210;SDS011;2119;48.828;12.396;2024-03-07T16:46:36;17.13;;;11.70;;
4210;SDS011;2119;48.828;12.396;2024-03-07T16:51:37;16.37;;;11.63;;
4210;SDS011;2119;48.828;12.396;2024-03-07T16:56:38;17.77;;;11.60;;
4210;SDS011;2119;48.828;12.396;2024-03-07T17:01:40;17.53;;;10.23;;
4210;SDS011;2119;48.828;12.396;2024-03-07T17:06:44;15.83;;;10.27;;
4210;SDS011;2119;48.828;12.396;2024-03-07T17:11:44;17.08;;;11.48;;
4210;SDS011;2119;48.828;12.396;2024-03-07T17:16:45;34.80;;;20.17;;
4210;SDS011;2119;48.828;12.396;2024-03-07T17:21:45;30.52;;;19.92;;
4210;SDS011;2119;48.828;12.396;2024-03-07T17:26:46;20.83;;;13.73;;
4210;SDS011;2119;48.828;12.396;2024-03-07T17:31:46;29.60;;;17.80;;
4210;SDS011;2119;48.828;12.396;2024-03-07T17:36:49;22.83;;;14.97;;
4210;SDS011;2119;48.828;12.396;2024-03-07T17:41:50;19.00;;;13.23;;
4210;SDS011;2119;48.828;12.396;2024-03-07T17:46:50;20.90;;;12.60;;
4210;SDS011;2119;48.828;12.396;2024-03-07T17:51:50;18.83;;;11.50;;
4210;SDS011;2119;48.828;12.396;2024-03-07T17:56:50;16.10;;;12.23;;
4210;SDS011;2119;48.828;12.396;2024-03-07T18:01:51;23.05;;;13.38;;
4210;SDS011;2119;48.828;12.396;2024-03-07T18:06:51;23.87;;;13.00;;
4210;SDS011;2119;48.828;12.396;2024-03-07T18:11:54;20.37;;;13.13;;
4210;SDS011;2119;48.828;12.396;2024-03-07T18:16:55;19.67;;;12.33;;
4210;SDS011;2119;48.828;12.396;2024-03-07T18:21:56;17.03;;;11.37;;
4210;SDS011;2119;48.828;12.396;2024-03-07T18:26:56;19.37;;;12.17;;
4210;SDS011;2119;48.828;12.396;2024-03-07T18:31:56;20.80;;;13.47;;
4210;SDS011;2119;48.828;12.396;2024-03-07T18:36:56;19.67;;;12.37;;
4210;SDS011;2119;48.828;12.396;2024-03-07T18:41:57;16.53;;;11.00;;
4210;SDS011;2119;48.828;12.396;2024-03-07T18:46:57;16.97;;;12.00;;
4210;SDS011;2119;48.828;12.396;2024-03-07T18:51:58;21.20;;;13.50;;
4210;SDS011;2119;48.828;12.396;2024-03-07T18:56:58;19.10;;;12.70;;
4210;SDS011;2119;48.828;12.396;2024-03-07T19:01:59;22.90;;;13.53;;
4210;SDS011;2119;48.828;12.396;2024-03-07T19:06:59;22.20;;;14.83;;
4210;SDS011;2119;48.828;12.396;2024-03-07T19:11:59;25.80;;;14.03;;
4210;SDS011;2119;48.828;12.396;2024-03-07T19:17:03;22.93;;;13.60;;
4210;SDS011;2119;48.828;12.396;2024-03-07T19:22:08;18.53;;;12.33;;
4210;SDS011;2119;48.828;12.396;2024-03-07T19:27:10;22.63;;;13.10;;
4210;SDS011;2119;48.828;12.396;2024-03-07T19:32:11;20.93;;;12.30;;
4210;SDS011;2119;48.828;12.396;2024-03-07T19:37:12;23.73;;;14.73;;
4210;SDS011;2119;48.828;12.396;2024-03-07T19:42:12;29.30;;;15.00;;
4210;SDS011;2119;48.828;12.396;2024-03-07T19:47:12;23.80;;;14.83;;
4210;SDS011;2119;48.828;12.396;2024-03-07T19:52:13;30.70;;;17.53;;
4210;SDS011;2119;48.828;12.396;2024-03-07T19:57:13;25.10;;;15.60;;
4210;SDS011;2119;48.828;12.396;2024-03-07T20:02:13;22.40;;;13.95;;
4210;SDS011;2119;48.828;12.396;2024-03-07T20:07:14;22.27;;;14.50;;
4210;SDS011;2119;48.828;12.396;2024-03-07T20:12:14;27.47;;;15.27;;
4210;SDS011;2119;48.828;12.396;2024-03-07T20:17:16;25.00;;;15.63;;
4210;SDS011;2119;48.828;12.396;2024-03-07T20:22:16;28.80;;;14.65;;
4210;SDS011;2119;48.828;12.396;2024-03-07T20:27:18;24.23;;;15.07;;
4210;SDS011;2119;48.828;12.396;2024-03-07T20:32:18;21.58;;;12.77;;
4210;SDS011;2119;48.828;12.396;2024-03-07T20:37:19;23.37;;;14.17;;
4210;SDS011;2119;48.828;12.396;2024-03-07T20:42:22;24.83;;;15.00;;
4210;SDS011;2119;48.828;12.396;2024-03-07T20:47:22;33.40;;;16.77;;
4210;SDS011;2119;48.828;12.396;2024-03-07T20:52:22;26.40;;;16.17;;
4210;SDS011;2119;48.828;12.396;2024-03-07T20:57:23;37.17;;;14.07;;
4210;SDS011;2119;48.828;12.396;2024-03-07T21:02:23;22.43;;;15.07;;
4210;SDS011;2119;48.828;12.396;2024-03-07T21:07:28;23.10;;;15.03;;
4210;SDS011;2119;48.828;12.396;2024-03-07T21:12:29;27.57;;;14.03;;
4210;SDS011;2119;48.828;12.396;2024-03-07T21:17:29;22.30;;;13.90;;
4210;SDS011;2119;48.828;12.396;2024-03-07T21:22:31;25.47;;;14.00;;
4210;SDS011;2119;48.828;12.396;2024-03-07T21:27:34;20.57;;;12.30;;
4210;SDS011;2119;48.828;12.396;2024-03-07T21:32:37;20.10;;;12.57;;
4210;SDS011;2119;48.828;12.396;2024-03-07T21:37:37;21.43;;;13.27;;
4210;SDS011;2119;48.828;12.396;2024-03-07T21:42:43;25.67;;;14.70;;
4210;SDS011;2119;48.828;12.396;2024-03-07T21:47:44;24.57;;;13.00;;
4210;SDS011;2119;48.828;12.396;2024-03-07T21:52:45;24.23;;;14.60;;
4210;SDS011;2119;48.828;12.396;2024-03-07T21:57:46;22.40;;;13.77;;
4210;SDS011;2119;48.828;12.396;2024-03-07T22:02:46;24.42;;;13.50;;
4210;SDS011;2119;48.828;12.396;2024-03-07T22:07:47;27.10;;;14.00;;
4210;SDS011;2119;48.828;12.396;2024-03-07T22:12:47;24.50;;;14.33;;
4210;SDS011;2119;48.828;12.396;2024-03-07T22:17:47;26.67;;;16.40;;
4210;SDS011;2119;48.828;12.396;2024-03-07T22:22:48;31.77;;;18.70;;
4210;SDS011;2119;48.828;12.396;2024-03-07T22:27:48;34.50;;;19.37;;
4210;SDS011;2119;48.828;12.396;2024-03-07T22:32:48;32.08;;;18.48;;
4210;SDS011;2119;48.828;12.396;2024-03-07T22:37:48;37.17;;;18.00;;
4210;SDS011;2119;48.828;12.396;2024-03-07T22:42:51;30.20;;;16.63;;
4210;SDS011;2119;48.828;12.396;2024-03-07T22:47:51;29.75;;;16.02;;
4210;SDS011;2119;48.828;12.396;2024-03-07T22:52:52;27.13;;;15.50;;
4210;SDS011;2119;48.828;12.396;2024-03-07T22:57:52;31.40;;;18.77;;
4210;SDS011;2119;48.828;12.396;2024-03-07T23:02:54;43.73;;;24.63;;
4210;SDS011;2119;48.828;12.396;2024-03-07T23:07:56;52.53;;;25.93;;
4210;SDS011;2119;48.828;12.396;2024-03-07T23:12:57;29.40;;;17.65;;
4210;SDS011;2119;48.828;12.396;2024-03-07T23:17:58;29.17;;;16.30;;
4210;SDS011;2119;48.828;12.396;2024-03-07T23:22:59;29.80;;;17.20;;
4210;SDS011;2119;48.828;12.396;2024-03-07T23:27:59;25.20;;;14.93;;
4210;SDS011;2119;48.828;12.396;2024-03-07T23:33:01;38.20;;;16.93;;
4210;SDS011;2119;48.828;12.396;2024-03-07T23:38:02;27.88;;;15.63;;
4210;SDS011;2119;48.828;12.396;2024-03-07T23:43:02;23.48;;;13.85;;
4210;SDS011;2119;48.828;12.396;2024-03-07T23:48:02;25.13;;;13.70;;
4210;SDS011;2119;48.828;12.396;2024-03-07T23:53:03;25.93;;;13.93;;
4210;SDS011;2119;48.828;12.396;2024-03-07T23:58:06;20.03;;;12.97;;
